createdAt,value
2024-03-26T00:00:28.415Z,14.60
2024-03-26T00:01:04.411Z,15.23
2024-03-26T00:01:41.219Z,14.40
2024-03-26T00:02:11.985Z,15.00
2024-03-26T00:02:43.121Z,14.93
2024-03-26T00:03:14.775Z,16.03
2024-03-26T00:03:45.436Z,15.83
2024-03-26T00:04:16.060Z,15.83
2024-03-26T00:04:46.702Z,15.60
2024-03-26T00:05:17.400Z,15.30
2024-03-26T00:05:51.685Z,15.60
2024-03-26T00:06:22.304Z,15.90
2024-03-26T00:06:55.038Z,15.70
2024-03-26T00:07:25.668Z,15.70
2024-03-26T00:07:56.414Z,15.57
2024-03-26T00:08:27.344Z,16.10
2024-03-26T00:08:58.418Z,15.13
2024-03-26T00:09:29.072Z,14.73
2024-03-26T00:09:59.696Z,15.30
2024-03-26T00:10:31.035Z,14.73
2024-03-26T00:11:02.773Z,15.77
2024-03-26T00:11:33.360Z,15.27
2024-03-26T00:12:04.169Z,15.63
2024-03-26T00:12:35.928Z,14.40
2024-03-26T00:13:06.541Z,14.10
2024-03-26T00:13:38.398Z,15.30
2024-03-26T00:14:09.010Z,15.73
2024-03-26T00:14:40.262Z,16.83
2024-03-26T00:15:12.252Z,16.13
2024-03-26T00:15:44.448Z,14.63
2024-03-26T00:16:15.084Z,15.40
2024-03-26T00:16:45.689Z,15.17
2024-03-26T00:17:16.338Z,14.53
2024-03-26T00:17:46.937Z,14.37
2024-03-26T00:18:20.503Z,15.27
2024-03-26T00:18:52.161Z,16.27
2024-03-26T00:19:22.854Z,15.33
2024-03-26T00:19:53.468Z,14.60
2024-03-26T00:20:24.056Z,14.77
2024-03-26T00:20:54.660Z,14.30
2024-03-26T00:21:25.271Z,14.37
2024-03-26T00:21:56.072Z,15.40
2024-03-26T00:22:27.765Z,15.80
2024-03-26T00:22:58.369Z,15.13
2024-03-26T00:23:29.079Z,15.67
2024-03-26T00:23:59.714Z,14.97
2024-03-26T00:24:30.366Z,16.23
2024-03-26T00:25:00.990Z,14.87
2024-03-26T00:25:32.029Z,14.93
2024-03-26T00:26:02.673Z,15.70
2024-03-26T00:26:34.685Z,15.27
2024-03-26T00:27:05.475Z,14.87
2024-03-26T00:27:36.061Z,15.57
2024-03-26T00:28:06.724Z,15.50
2024-03-26T00:28:40.164Z,15.97
2024-03-26T00:29:12.008Z,14.93
2024-03-26T00:29:42.650Z,16.40
2024-03-26T00:30:15.067Z,16.70
2024-03-26T00:30:45.680Z,16.00
2024-03-26T00:31:16.293Z,15.37
2024-03-26T00:31:46.955Z,15.30
2024-03-26T00:32:17.666Z,14.97
2024-03-26T00:32:48.254Z,15.57
2024-03-26T00:33:18.840Z,14.47
2024-03-26T00:33:49.537Z,15.80
2024-03-26T00:34:20.131Z,17.33
2024-03-26T00:34:50.724Z,16.33
2024-03-26T00:35:21.768Z,16.50
2024-03-26T00:35:52.374Z,16.93
2024-03-26T00:36:23.358Z,15.40
2024-03-26T00:36:53.945Z,15.77
2024-03-26T00:37:24.539Z,16.37
2024-03-26T00:37:55.121Z,16.73
2024-03-26T00:38:27.251Z,16.67
2024-03-26T00:38:59.687Z,15.93
2024-03-26T00:39:31.288Z,15.53
2024-03-26T00:40:02.137Z,16.63
2024-03-26T00:40:32.758Z,15.50
2024-03-26T00:41:03.428Z,15.87
2024-03-26T00:41:35.469Z,15.27
2024-03-26T00:42:07.681Z,15.33
2024-03-26T00:42:38.303Z,15.10
2024-03-26T00:43:09.363Z,14.97
2024-03-26T00:43:39.974Z,14.43
2024-03-26T00:44:10.582Z,14.53
2024-03-26T00:44:41.182Z,14.30
2024-03-26T00:45:13.022Z,15.40
2024-03-26T00:46:05.015Z,15.03
2024-03-26T00:46:35.667Z,15.33
2024-03-26T00:47:25.724Z,14.20
2024-03-26T00:47:56.894Z,14.13
2024-03-26T00:48:28.505Z,15.27
2024-03-26T00:48:59.079Z,15.43
2024-03-26T00:49:29.667Z,15.33
2024-03-26T00:50:00.255Z,15.10
2024-03-26T00:50:31.030Z,15.97
2024-03-26T00:51:02.110Z,15.00
2024-03-26T00:51:33.536Z,16.67
2024-03-26T00:52:04.354Z,16.63
2024-03-26T00:52:35.642Z,15.77
2024-03-26T00:53:06.248Z,15.73
2024-03-26T00:53:36.942Z,15.57
2024-03-26T00:54:10.316Z,16.47
2024-03-26T00:54:41.235Z,16.03
2024-03-26T00:55:12.317Z,15.07
2024-03-26T00:55:43.124Z,14.33
2024-03-26T00:56:13.721Z,15.03
2024-03-26T00:56:44.381Z,15.20
2024-03-26T00:57:14.998Z,15.87
2024-03-26T00:57:47.238Z,17.27
2024-03-26T00:58:17.886Z,17.57
2024-03-26T00:58:48.611Z,15.60
2024-03-26T00:59:20.514Z,16.13
2024-03-26T00:59:51.126Z,16.23
2024-03-26T01:00:21.802Z,15.20
2024-03-26T01:00:52.400Z,14.90
2024-03-26T01:01:23.008Z,15.40
2024-03-26T01:01:55.415Z,16.23
2024-03-26T01:02:26.256Z,16.07
2024-03-26T01:02:56.863Z,15.80
2024-03-26T01:03:28.741Z,15.87
2024-03-26T01:04:05.322Z,15.33
2024-03-26T01:04:36.332Z,15.20
2024-03-26T01:05:07.220Z,15.70
2024-03-26T01:05:38.939Z,15.77
2024-03-26T01:06:10.552Z,16.67
2024-03-26T01:06:41.257Z,15.87
2024-03-26T01:07:11.854Z,16.17
2024-03-26T01:07:42.506Z,15.90
2024-03-26T01:08:13.113Z,15.47
2024-03-26T01:08:45.185Z,15.30
2024-03-26T01:09:17.764Z,16.47
2024-03-26T01:09:48.469Z,15.83
2024-03-26T01:10:19.290Z,15.50
2024-03-26T01:10:49.998Z,15.67
2024-03-26T01:11:20.672Z,16.50
2024-03-26T01:11:51.258Z,17.07
2024-03-26T01:12:22.870Z,17.97
2024-03-26T01:12:53.466Z,16.53
2024-03-26T01:13:25.214Z,17.20
2024-03-26T01:13:58.482Z,17.07
2024-03-26T01:14:29.735Z,15.57
2024-03-26T01:15:00.438Z,16.10
2024-03-26T01:15:31.048Z,15.53
2024-03-26T01:16:04.519Z,15.23
2024-03-26T01:16:35.216Z,15.87
2024-03-26T01:17:07.816Z,15.67
2024-03-26T01:17:40.885Z,14.13
2024-03-26T01:18:11.798Z,15.07
2024-03-26T01:18:42.405Z,14.87
2024-03-26T01:19:13.014Z,15.43
2024-03-26T01:19:43.824Z,15.93
2024-03-26T01:20:16.184Z,15.13
2024-03-26T01:20:47.252Z,15.07
2024-03-26T01:21:20.467Z,14.60
2024-03-26T01:21:53.110Z,14.70
2024-03-26T01:22:24.687Z,14.63
2024-03-26T01:22:55.284Z,13.97
2024-03-26T01:23:25.905Z,13.97
2024-03-26T01:23:58.768Z,14.63
2024-03-26T01:24:30.479Z,14.53
2024-03-26T01:25:01.224Z,14.83
2024-03-26T01:25:35.218Z,14.10
2024-03-26T01:26:05.862Z,13.57
2024-03-26T01:26:37.108Z,13.90
2024-03-26T01:27:07.708Z,13.97
2024-03-26T01:27:38.298Z,13.33
2024-03-26T01:28:09.469Z,13.03
2024-03-26T01:28:41.942Z,12.97
2024-03-26T01:29:12.570Z,12.50
2024-03-26T01:29:44.448Z,12.30
2024-03-26T01:30:15.220Z,12.20
2024-03-26T01:30:46.836Z,11.97
2024-03-26T01:31:17.435Z,10.83
2024-03-26T01:31:48.467Z,11.50
2024-03-26T01:32:19.056Z,11.50
2024-03-26T01:32:49.878Z,12.00
2024-03-26T01:33:21.272Z,12.47
2024-03-26T01:33:51.870Z,13.37
2024-03-26T01:34:22.481Z,12.97
2024-03-26T01:34:54.284Z,12.53
2024-03-26T01:35:26.531Z,11.50
2024-03-26T01:35:57.150Z,11.30
2024-03-26T01:36:28.398Z,10.93
2024-03-26T01:36:59.008Z,11.13
2024-03-26T01:37:29.660Z,11.83
2024-03-26T01:38:01.266Z,11.87
2024-03-26T01:38:32.510Z,11.63
2024-03-26T01:39:03.241Z,11.60
2024-03-26T01:39:33.857Z,12.10
2024-03-26T01:40:06.138Z,12.17
2024-03-26T01:40:36.781Z,11.57
2024-03-26T01:41:07.407Z,11.90
2024-03-26T01:41:39.433Z,11.93
2024-03-26T01:42:10.106Z,12.13
2024-03-26T01:42:40.737Z,11.33
2024-03-26T01:43:11.584Z,12.33
2024-03-26T01:43:42.185Z,11.90
2024-03-26T01:44:12.791Z,11.77
2024-03-26T01:44:44.094Z,13.50
2024-03-26T01:45:14.704Z,12.67
2024-03-26T01:45:45.327Z,12.80
2024-03-26T01:46:15.980Z,13.37
2024-03-26T01:46:46.788Z,13.03
2024-03-26T01:47:17.617Z,12.87
2024-03-26T01:47:49.657Z,12.10
2024-03-26T01:48:23.021Z,13.47
2024-03-26T01:48:53.933Z,13.83
2024-03-26T01:49:25.954Z,13.60
2024-03-26T01:49:59.701Z,12.87
2024-03-26T01:50:40.619Z,12.43
2024-03-26T01:51:11.403Z,12.93
2024-03-26T01:51:43.960Z,14.10
2024-03-26T01:52:16.276Z,13.20
2024-03-26T01:52:47.954Z,13.70
2024-03-26T01:53:20.427Z,13.53
2024-03-26T01:53:52.528Z,13.17
2024-03-26T01:54:23.818Z,13.90
2024-03-26T01:54:57.334Z,13.73
2024-03-26T01:55:30.630Z,14.40
2024-03-26T01:56:02.850Z,14.13
2024-03-26T01:56:33.886Z,13.93
2024-03-26T01:57:05.693Z,14.10
2024-03-26T01:57:36.606Z,14.17
2024-03-26T01:58:07.300Z,14.77
2024-03-26T01:58:39.810Z,14.30
2024-03-26T01:59:11.935Z,14.57
2024-03-26T01:59:44.505Z,14.40
2024-03-26T02:00:17.801Z,13.87
2024-03-26T02:00:50.443Z,13.90
2024-03-26T02:01:22.729Z,14.27
2024-03-26T02:01:54.627Z,13.10
2024-03-26T02:02:25.248Z,13.07
2024-03-26T02:02:56.099Z,14.17
2024-03-26T02:03:26.748Z,14.53
2024-03-26T02:03:58.355Z,13.83
2024-03-26T02:04:30.278Z,13.73
2024-03-26T02:05:00.904Z,14.17
2024-03-26T02:05:31.664Z,14.17
2024-03-26T02:06:03.800Z,14.10
2024-03-26T02:06:34.504Z,14.80
2024-03-26T02:07:06.251Z,13.70
2024-03-26T02:07:38.926Z,13.17
2024-03-26T02:08:11.844Z,13.37
2024-03-26T02:08:42.977Z,13.30
2024-03-26T02:09:15.583Z,14.17
2024-03-26T02:09:47.346Z,13.90
2024-03-26T02:10:18.502Z,13.40
2024-03-26T02:10:50.493Z,14.13
2024-03-26T02:11:22.473Z,13.73
2024-03-26T02:11:53.657Z,12.57
2024-03-26T02:12:24.700Z,12.60
2024-03-26T02:12:55.296Z,12.30
2024-03-26T02:13:26.007Z,12.47
2024-03-26T02:13:56.661Z,11.77
2024-03-26T02:14:27.270Z,12.13
2024-03-26T02:14:58.219Z,11.17
2024-03-26T02:15:28.856Z,11.27
2024-03-26T02:16:00.156Z,11.37
2024-03-26T02:16:30.757Z,12.03
2024-03-26T02:17:03.724Z,12.27
2024-03-26T02:17:34.330Z,12.60
2024-03-26T02:18:05.134Z,12.33
2024-03-26T02:18:35.754Z,12.23
2024-03-26T02:19:07.189Z,12.53
2024-03-26T02:19:37.933Z,12.50
2024-03-26T02:20:10.256Z,12.93
2024-03-26T02:20:41.305Z,12.53
2024-03-26T02:21:11.922Z,11.57
2024-03-26T02:21:43.849Z,11.90
2024-03-26T02:22:15.481Z,12.53
2024-03-26T02:22:46.076Z,11.97
2024-03-26T02:23:22.034Z,11.40
2024-03-26T02:23:52.626Z,11.90
2024-03-26T02:24:25.302Z,12.73
2024-03-26T02:24:56.144Z,13.47
2024-03-26T02:25:28.305Z,13.33
2024-03-26T02:25:58.998Z,13.07
2024-03-26T02:26:29.607Z,13.40
2024-03-26T02:27:00.288Z,13.00
2024-03-26T02:27:31.326Z,12.33
2024-03-26T02:28:02.589Z,12.83
2024-03-26T02:28:33.219Z,13.13
2024-03-26T02:29:03.828Z,12.83
2024-03-26T02:29:34.431Z,12.77
2024-03-26T02:30:05.717Z,12.00
2024-03-26T02:30:36.987Z,11.87
2024-03-26T02:31:07.638Z,13.27
2024-03-26T02:31:38.258Z,12.87
2024-03-26T02:32:17.395Z,12.40
2024-03-26T02:32:48.031Z,13.63
2024-03-26T02:33:18.655Z,13.63
2024-03-26T02:33:49.321Z,13.20
2024-03-26T02:34:21.704Z,12.63
2024-03-26T02:34:52.295Z,13.00
2024-03-26T02:35:24.211Z,12.10
2024-03-26T02:35:56.238Z,12.63
2024-03-26T02:36:26.899Z,13.73
2024-03-26T02:36:57.607Z,12.60
2024-03-26T02:37:29.568Z,11.80
2024-03-26T02:38:01.870Z,11.47
2024-03-26T02:38:32.497Z,12.13
2024-03-26T02:39:03.659Z,13.00
2024-03-26T02:39:34.253Z,13.47
2024-03-26T02:40:05.260Z,12.90
2024-03-26T02:40:35.845Z,13.63
2024-03-26T02:41:06.841Z,13.27
2024-03-26T02:41:37.777Z,13.43
2024-03-26T02:42:08.914Z,14.03
2024-03-26T02:42:39.693Z,14.03
2024-03-26T02:43:10.365Z,14.57
2024-03-26T02:43:40.972Z,14.47
2024-03-26T02:44:11.952Z,14.80
2024-03-26T02:44:43.581Z,14.77
2024-03-26T02:45:14.486Z,15.20
2024-03-26T02:45:45.756Z,15.57
2024-03-26T02:46:16.788Z,15.77
2024-03-26T02:46:47.374Z,16.07
2024-03-26T02:47:17.968Z,15.63
2024-03-26T02:47:48.602Z,15.33
2024-03-26T02:48:19.224Z,14.70
2024-03-26T02:48:52.867Z,15.57
2024-03-26T02:49:23.464Z,15.33
2024-03-26T02:49:54.079Z,15.30
2024-03-26T02:50:24.652Z,15.40
2024-03-26T02:50:55.232Z,15.87
2024-03-26T02:51:25.859Z,16.30
2024-03-26T02:51:56.457Z,15.43
2024-03-26T02:52:27.084Z,16.03
2024-03-26T02:52:57.739Z,17.00
2024-03-26T02:53:28.376Z,17.47
2024-03-26T02:53:59.008Z,17.07
2024-03-26T02:54:30.279Z,17.03
2024-03-26T02:55:00.968Z,17.63
2024-03-26T02:55:31.592Z,18.03
2024-03-26T02:56:02.282Z,17.77
2024-03-26T02:56:32.876Z,17.00
2024-03-26T02:57:03.663Z,17.00
2024-03-26T02:57:34.289Z,16.93
2024-03-26T02:58:05.303Z,17.50
2024-03-26T02:58:36.043Z,17.93
2024-03-26T02:59:07.346Z,17.27
2024-03-26T02:59:37.972Z,17.73
2024-03-26T03:00:09.615Z,17.57
2024-03-26T03:00:41.820Z,17.30
2024-03-26T03:01:13.213Z,18.63
2024-03-26T03:01:44.788Z,17.60
2024-03-26T03:02:15.398Z,18.30
2024-03-26T03:02:47.381Z,17.03
2024-03-26T03:03:18.319Z,16.87
2024-03-26T03:03:49.055Z,17.67
2024-03-26T03:04:19.665Z,17.70
2024-03-26T03:04:50.322Z,17.80
2024-03-26T03:05:20.909Z,17.27
2024-03-26T03:05:51.526Z,16.53
2024-03-26T03:06:22.105Z,16.33
2024-03-26T03:06:52.717Z,16.33
2024-03-26T03:07:23.331Z,16.73
2024-03-26T03:07:53.985Z,16.47
2024-03-26T03:08:24.559Z,16.37
2024-03-26T03:08:55.136Z,16.33
2024-03-26T03:09:25.715Z,15.70
2024-03-26T03:09:56.320Z,16.73
2024-03-26T03:10:26.939Z,16.27
2024-03-26T03:10:57.577Z,15.50
2024-03-26T03:11:28.296Z,15.93
2024-03-26T03:11:58.890Z,15.53
2024-03-26T03:12:29.504Z,15.47
2024-03-26T03:13:00.207Z,14.17
2024-03-26T03:13:31.315Z,13.60
2024-03-26T03:14:01.910Z,14.60
2024-03-26T03:14:33.200Z,15.50
2024-03-26T03:15:04.058Z,16.00
2024-03-26T03:15:34.657Z,15.13
2024-03-26T03:16:05.431Z,14.50
2024-03-26T03:16:36.029Z,14.67
2024-03-26T03:17:06.605Z,14.40
2024-03-26T03:17:39.505Z,14.23
2024-03-26T03:18:11.151Z,14.70
2024-03-26T03:18:42.785Z,14.50
2024-03-26T03:19:13.378Z,14.90
2024-03-26T03:19:43.971Z,13.97
2024-03-26T03:20:14.638Z,13.80
2024-03-26T03:20:45.513Z,15.47
2024-03-26T03:21:16.123Z,15.67
2024-03-26T03:21:47.370Z,14.70
2024-03-26T03:22:18.052Z,14.67
2024-03-26T03:22:48.677Z,14.43
2024-03-26T03:23:19.432Z,13.50
2024-03-26T03:23:50.089Z,13.03
2024-03-26T03:24:20.680Z,14.03
2024-03-26T03:24:52.578Z,14.20
2024-03-26T03:25:23.152Z,14.93
2024-03-26T03:25:54.136Z,14.97
2024-03-26T03:26:25.361Z,14.60
2024-03-26T03:26:55.943Z,14.83
2024-03-26T03:27:26.535Z,14.23
2024-03-26T03:27:57.180Z,14.27
2024-03-26T03:28:29.061Z,14.07
2024-03-26T03:28:59.994Z,14.90
2024-03-26T03:29:30.603Z,14.43
2024-03-26T03:30:01.486Z,14.43
2024-03-26T03:30:32.094Z,15.13
2024-03-26T03:31:02.791Z,14.90
2024-03-26T03:31:33.382Z,15.23
2024-03-26T03:32:04.148Z,15.37
2024-03-26T03:32:34.722Z,14.30
2024-03-26T03:33:05.338Z,14.00
2024-03-26T03:33:35.966Z,13.40
2024-03-26T03:34:07.735Z,14.03
2024-03-26T03:34:39.074Z,15.00
2024-03-26T03:35:09.695Z,14.57
2024-03-26T03:35:41.666Z,14.67
2024-03-26T03:36:12.994Z,14.80
2024-03-26T03:36:43.634Z,14.30
2024-03-26T03:37:14.339Z,15.07
2024-03-26T03:37:45.473Z,13.30
2024-03-26T03:38:16.155Z,13.77
2024-03-26T03:38:46.777Z,14.20
2024-03-26T03:39:17.596Z,14.30
2024-03-26T03:39:48.255Z,16.20
2024-03-26T03:40:20.092Z,14.97
2024-03-26T03:40:50.750Z,14.90
2024-03-26T03:41:21.372Z,15.00
2024-03-26T03:41:51.982Z,14.13
2024-03-26T03:42:22.576Z,13.47
2024-03-26T03:42:53.202Z,13.37
2024-03-26T03:43:24.826Z,13.80
2024-03-26T03:43:55.436Z,14.10
2024-03-26T03:44:30.599Z,14.37
2024-03-26T03:45:01.399Z,14.00
2024-03-26T03:45:32.060Z,14.57
2024-03-26T03:46:04.159Z,14.33
2024-03-26T03:46:35.944Z,14.37
2024-03-26T03:47:08.000Z,13.97
2024-03-26T03:47:38.817Z,14.00
2024-03-26T03:48:10.520Z,14.73
2024-03-26T03:48:41.137Z,14.53
2024-03-26T03:49:12.729Z,13.93
2024-03-26T03:49:44.322Z,14.00
2024-03-26T03:50:15.152Z,14.00
2024-03-26T03:50:45.755Z,13.80
2024-03-26T03:51:16.482Z,13.30
2024-03-26T03:51:47.106Z,13.60
2024-03-26T03:52:18.866Z,13.37
2024-03-26T03:52:49.488Z,13.70
2024-03-26T03:53:20.094Z,13.07
2024-03-26T03:53:54.156Z,13.43
2024-03-26T03:54:25.087Z,14.60
2024-03-26T03:54:55.663Z,14.07
2024-03-26T03:55:26.243Z,14.23
2024-03-26T03:55:56.906Z,13.93
2024-03-26T03:56:27.509Z,13.10
2024-03-26T03:56:59.503Z,12.47
2024-03-26T03:57:30.474Z,12.77
2024-03-26T03:58:01.098Z,13.03
2024-03-26T03:58:31.704Z,12.83
2024-03-26T03:59:06.263Z,12.63
2024-03-26T03:59:38.734Z,12.47
2024-03-26T04:00:10.073Z,13.80
2024-03-26T04:00:42.023Z,12.77
2024-03-26T04:01:13.658Z,11.80
2024-03-26T04:01:45.465Z,12.60
2024-03-26T04:02:17.694Z,12.50
2024-03-26T04:02:48.327Z,13.47
2024-03-26T04:03:18.928Z,13.07
2024-03-26T04:03:51.719Z,13.13
2024-03-26T04:04:22.456Z,13.03
2024-03-26T04:04:53.043Z,12.00
2024-03-26T04:05:23.684Z,13.17
2024-03-26T04:05:54.315Z,12.93
2024-03-26T04:06:25.201Z,12.30
2024-03-26T04:06:55.802Z,13.40
2024-03-26T04:07:26.403Z,14.10
2024-03-26T04:07:56.975Z,13.83
2024-03-26T04:08:27.556Z,13.40
2024-03-26T04:08:59.586Z,13.70
2024-03-26T04:09:31.322Z,13.77
2024-03-26T04:10:02.834Z,14.17
2024-03-26T04:10:38.354Z,14.03
2024-03-26T04:11:08.966Z,13.23
2024-03-26T04:11:40.963Z,13.27
2024-03-26T04:12:13.355Z,13.80
2024-03-26T04:12:43.982Z,14.10
2024-03-26T04:13:14.584Z,14.17
2024-03-26T04:13:46.199Z,14.00
2024-03-26T04:14:17.862Z,14.87
2024-03-26T04:14:48.962Z,14.33
2024-03-26T04:15:19.586Z,13.80
2024-03-26T04:15:50.183Z,13.80
2024-03-26T04:16:20.787Z,14.13
2024-03-26T04:16:51.407Z,13.47
2024-03-26T04:17:23.503Z,13.47
2024-03-26T04:17:54.175Z,12.90
2024-03-26T04:18:24.870Z,13.07
2024-03-26T04:18:55.484Z,14.00
2024-03-26T04:19:26.715Z,13.40
2024-03-26T04:19:57.367Z,14.00
2024-03-26T04:20:28.396Z,13.60
2024-03-26T04:20:59.010Z,14.27
2024-03-26T04:21:29.608Z,13.90
2024-03-26T04:22:00.371Z,13.60
2024-03-26T04:22:31.163Z,14.07
2024-03-26T04:23:01.757Z,13.43
2024-03-26T04:23:33.508Z,13.73
2024-03-26T04:24:04.969Z,14.00
2024-03-26T04:24:35.618Z,14.87
2024-03-26T04:25:06.401Z,13.87
2024-03-26T04:25:37.002Z,13.40
2024-03-26T04:26:07.799Z,13.77
2024-03-26T04:26:38.867Z,14.30
2024-03-26T04:27:09.468Z,13.17
2024-03-26T04:27:40.130Z,12.63
2024-03-26T04:28:10.712Z,13.70
2024-03-26T04:28:41.825Z,13.67
2024-03-26T04:29:12.446Z,15.93
2024-03-26T04:29:43.048Z,15.67
2024-03-26T04:30:13.695Z,17.83
2024-03-26T04:30:45.300Z,24.00
2024-03-26T04:31:16.500Z,19.27
2024-03-26T04:31:47.118Z,15.30
2024-03-26T04:32:17.716Z,15.40
2024-03-26T04:32:52.554Z,14.23
2024-03-26T04:33:23.211Z,14.73
2024-03-26T04:33:54.126Z,13.37
2024-03-26T04:34:27.431Z,13.43
2024-03-26T04:35:01.524Z,14.47
2024-03-26T04:35:32.491Z,14.60
2024-03-26T04:36:03.344Z,15.73
2024-03-26T04:36:33.941Z,15.23
2024-03-26T04:37:04.573Z,14.80
2024-03-26T04:37:35.182Z,43.37
2024-03-26T04:38:05.796Z,46.47
2024-03-26T04:38:36.403Z,31.70
2024-03-26T04:39:09.318Z,16.70
2024-03-26T04:39:40.384Z,14.37
2024-03-26T04:40:11.337Z,14.57
2024-03-26T04:40:43.283Z,13.50
2024-03-26T04:41:14.087Z,13.33
2024-03-26T04:41:46.645Z,13.77
2024-03-26T04:42:17.253Z,14.40
2024-03-26T04:42:48.356Z,13.20
2024-03-26T04:43:18.961Z,14.20
2024-03-26T04:43:49.562Z,14.20
2024-03-26T04:44:20.418Z,14.43
2024-03-26T04:44:51.052Z,14.83
2024-03-26T04:45:21.677Z,14.43
2024-03-26T04:45:53.808Z,14.40
2024-03-26T04:46:24.461Z,13.97
2024-03-26T04:46:55.470Z,14.87
2024-03-26T04:47:28.002Z,14.93
2024-03-26T04:47:58.622Z,14.53
2024-03-26T04:48:29.248Z,14.60
2024-03-26T04:49:01.024Z,15.00
2024-03-26T04:49:31.999Z,15.17
2024-03-26T04:50:02.742Z,15.17
2024-03-26T04:50:35.216Z,14.23
2024-03-26T04:51:05.842Z,14.87
2024-03-26T04:51:36.825Z,13.67
2024-03-26T04:52:07.433Z,14.00
2024-03-26T04:52:38.042Z,14.80
2024-03-26T04:53:08.631Z,14.80
2024-03-26T04:53:39.285Z,13.87
2024-03-26T04:54:10.356Z,14.00
2024-03-26T04:54:42.010Z,13.60
2024-03-26T04:55:13.290Z,14.60
2024-03-26T04:55:44.052Z,13.70
2024-03-26T04:56:15.956Z,13.53
2024-03-26T04:56:47.776Z,14.33
2024-03-26T04:57:22.157Z,14.47
2024-03-26T04:57:58.695Z,13.53
2024-03-26T04:58:29.957Z,12.60
2024-03-26T04:59:00.576Z,12.53
2024-03-26T04:59:31.175Z,12.43
2024-03-26T05:00:01.805Z,12.47
2024-03-26T05:00:32.445Z,13.10
2024-03-26T05:01:04.646Z,12.93
2024-03-26T05:01:35.893Z,11.97
2024-03-26T05:02:07.825Z,12.50
2024-03-26T05:02:38.852Z,12.70
2024-03-26T05:03:11.336Z,13.07
2024-03-26T05:03:41.942Z,12.97
2024-03-26T05:04:15.708Z,12.50
2024-03-26T05:04:49.410Z,12.73
2024-03-26T05:05:21.023Z,13.10
2024-03-26T05:05:52.188Z,12.60
2024-03-26T05:06:22.838Z,13.13
2024-03-26T05:06:54.489Z,12.80
2024-03-26T05:07:30.657Z,13.97
2024-03-26T05:08:01.277Z,13.50
2024-03-26T05:08:31.880Z,13.87
2024-03-26T05:09:04.632Z,22.77
2024-03-26T05:09:36.242Z,22.63
2024-03-26T05:10:10.503Z,87.60
2024-03-26T05:10:42.720Z,56.07
2024-03-26T05:11:18.426Z,33.80
2024-03-26T05:11:50.200Z,32.33
2024-03-26T05:12:20.799Z,31.40
2024-03-26T05:12:51.394Z,43.93
2024-03-26T05:13:22.015Z,89.23
2024-03-26T05:13:52.654Z,61.83
2024-03-26T05:14:23.302Z,50.07
2024-03-26T05:14:54.033Z,43.17
2024-03-26T05:15:27.198Z,41.47
2024-03-26T05:16:06.497Z,35.63
2024-03-26T05:16:37.300Z,51.73
2024-03-26T05:17:07.979Z,26.87
2024-03-26T05:17:38.607Z,29.73
2024-03-26T05:18:09.862Z,19.90
2024-03-26T05:18:40.522Z,16.87
2024-03-26T05:19:11.127Z,19.60
2024-03-26T05:19:42.383Z,17.07
2024-03-26T05:20:13.903Z,13.90
2024-03-26T05:20:44.555Z,15.00
2024-03-26T05:21:15.692Z,15.03
2024-03-26T05:21:46.360Z,13.60
2024-03-26T05:22:17.981Z,13.83
2024-03-26T05:22:49.046Z,14.30
2024-03-26T05:23:20.037Z,14.50
2024-03-26T05:23:50.635Z,12.90
2024-03-26T05:24:22.468Z,12.27
2024-03-26T05:24:55.838Z,13.27
2024-03-26T05:25:28.036Z,18.30
2024-03-26T05:26:00.632Z,35.37
2024-03-26T05:26:31.237Z,43.67
2024-03-26T05:27:01.852Z,25.23
2024-03-26T05:27:33.153Z,23.13
2024-03-26T05:28:03.969Z,60.67
2024-03-26T05:28:36.131Z,26.73
2024-03-26T05:29:07.797Z,23.60
2024-03-26T05:29:38.419Z,27.37
2024-03-26T05:30:09.301Z,23.93
2024-03-26T05:30:40.002Z,13.73
2024-03-26T05:31:17.815Z,12.17
2024-03-26T05:31:48.443Z,13.03
2024-03-26T05:32:20.074Z,12.13
2024-03-26T05:32:52.202Z,12.93
2024-03-26T05:33:22.847Z,13.87
2024-03-26T05:33:53.430Z,12.83
2024-03-26T05:34:25.338Z,11.43
2024-03-26T05:34:56.699Z,11.73
2024-03-26T05:35:33.919Z,11.53
2024-03-26T05:36:04.787Z,10.90
2024-03-26T05:36:35.399Z,12.67
2024-03-26T05:37:07.620Z,12.87
2024-03-26T05:37:38.263Z,13.10
2024-03-26T05:38:09.973Z,12.50
2024-03-26T05:38:41.253Z,13.20
2024-03-26T05:39:12.016Z,13.00
2024-03-26T05:39:44.026Z,13.37
2024-03-26T05:40:15.252Z,13.70
2024-03-26T05:40:46.541Z,13.60
2024-03-26T05:41:18.137Z,12.67
2024-03-26T05:41:50.486Z,13.63
2024-03-26T05:42:31.553Z,12.57
2024-03-26T05:43:03.212Z,13.23
2024-03-26T05:43:34.212Z,13.57
2024-03-26T05:44:06.164Z,13.23
2024-03-26T05:44:37.521Z,13.70
2024-03-26T05:45:08.611Z,13.43
2024-03-26T05:45:39.678Z,13.93
2024-03-26T05:46:10.304Z,13.70
2024-03-26T05:46:41.683Z,14.23
2024-03-26T05:47:13.215Z,14.53
2024-03-26T05:47:43.817Z,17.67
2024-03-26T05:48:16.313Z,16.73
2024-03-26T05:48:46.929Z,15.20
2024-03-26T05:49:17.534Z,15.47
2024-03-26T05:49:48.401Z,15.67
2024-03-26T05:50:20.471Z,13.97
2024-03-26T05:50:54.257Z,14.73
2024-03-26T05:51:24.864Z,13.93
2024-03-26T05:51:57.013Z,13.70
2024-03-26T05:52:28.422Z,13.43
2024-03-26T05:53:01.013Z,13.40
2024-03-26T05:53:32.264Z,15.07
2024-03-26T05:54:03.950Z,14.13
2024-03-26T05:54:35.648Z,14.27
2024-03-26T05:55:06.436Z,14.40
2024-03-26T05:55:37.056Z,13.73
2024-03-26T05:56:12.370Z,13.80
2024-03-26T05:56:45.846Z,13.10
2024-03-26T05:57:16.925Z,12.93
2024-03-26T05:57:48.997Z,13.23
2024-03-26T05:58:19.611Z,13.70
2024-03-26T05:58:53.747Z,13.87
2024-03-26T05:59:24.356Z,12.20
2024-03-26T05:59:55.034Z,12.33
2024-03-26T06:00:25.605Z,12.73
2024-03-26T06:00:56.416Z,13.47
2024-03-26T06:01:27.196Z,12.63
2024-03-26T06:01:57.774Z,12.23
2024-03-26T06:02:28.377Z,13.03
2024-03-26T06:02:58.948Z,13.00
2024-03-26T06:03:29.646Z,12.43
2024-03-26T06:04:02.727Z,12.57
2024-03-26T06:04:33.503Z,11.73
2024-03-26T06:05:05.253Z,12.07
2024-03-26T06:05:35.824Z,12.27
2024-03-26T06:06:06.419Z,12.30
2024-03-26T06:06:37.040Z,13.23
2024-03-26T06:07:07.819Z,14.73
2024-03-26T06:07:38.411Z,13.77
2024-03-26T06:08:09.105Z,12.57
2024-03-26T06:08:39.970Z,11.43
2024-03-26T06:09:10.577Z,11.63
2024-03-26T06:09:41.158Z,10.97
2024-03-26T06:10:11.758Z,11.70
2024-03-26T06:10:42.367Z,12.20
2024-03-26T06:11:12.963Z,11.10
2024-03-26T06:11:43.578Z,12.00
2024-03-26T06:12:14.180Z,12.00
2024-03-26T06:12:44.761Z,11.30
2024-03-26T06:13:15.376Z,11.80
2024-03-26T06:13:45.978Z,11.70
2024-03-26T06:14:16.633Z,12.20
2024-03-26T06:14:47.268Z,11.60
2024-03-26T06:15:17.857Z,12.33
2024-03-26T06:15:48.467Z,11.67
2024-03-26T06:16:19.537Z,10.93
2024-03-26T06:16:50.644Z,11.40
2024-03-26T06:17:21.208Z,12.07
2024-03-26T06:17:51.812Z,13.23
2024-03-26T06:18:24.407Z,12.83
2024-03-26T06:18:56.428Z,12.73
2024-03-26T06:19:27.064Z,13.30
2024-03-26T06:19:57.652Z,13.50
2024-03-26T06:20:28.257Z,12.37
2024-03-26T06:20:58.893Z,11.90
2024-03-26T06:21:29.609Z,11.90
2024-03-26T06:22:02.148Z,11.53
2024-03-26T06:22:32.771Z,11.73
2024-03-26T06:23:03.495Z,11.67
2024-03-26T06:23:34.123Z,12.47
2024-03-26T06:24:04.868Z,12.17
2024-03-26T06:24:35.859Z,12.13
2024-03-26T06:25:06.653Z,12.93
2024-03-26T06:25:37.249Z,12.73
2024-03-26T06:26:08.290Z,11.80
2024-03-26T06:26:38.903Z,12.50
2024-03-26T06:27:12.118Z,12.77
2024-03-26T06:27:44.983Z,12.43
2024-03-26T06:28:15.583Z,12.40
2024-03-26T06:28:46.198Z,12.40
2024-03-26T06:29:16.814Z,13.23
2024-03-26T06:29:48.924Z,15.47
2024-03-26T06:30:19.530Z,17.27
2024-03-26T06:30:50.336Z,14.07
2024-03-26T06:31:20.935Z,13.63
2024-03-26T06:31:51.718Z,13.47
2024-03-26T06:32:24.713Z,12.53
2024-03-26T06:32:58.003Z,12.53
2024-03-26T06:33:29.575Z,12.97
2024-03-26T06:34:00.266Z,12.37
2024-03-26T06:34:30.849Z,12.23
2024-03-26T06:35:01.613Z,12.27
2024-03-26T06:35:32.423Z,12.73
2024-03-26T06:36:03.377Z,12.87
2024-03-26T06:36:34.342Z,12.17
2024-03-26T06:37:05.028Z,13.20
2024-03-26T06:37:35.701Z,12.63
2024-03-26T06:38:07.030Z,12.63
2024-03-26T06:38:38.838Z,12.30
2024-03-26T06:39:10.632Z,11.50
2024-03-26T06:39:41.218Z,11.73
2024-03-26T06:40:11.875Z,12.70
2024-03-26T06:40:42.456Z,13.07
2024-03-26T06:41:13.045Z,13.47
2024-03-26T06:41:43.760Z,12.43
2024-03-26T06:42:14.393Z,11.57
2024-03-26T06:42:44.994Z,11.70
2024-03-26T06:43:15.577Z,12.13
2024-03-26T06:43:46.158Z,12.60